Aviation Discussion

000 FXUS63 KDTX 261646 AFDDTX AREA FORECAST DISCUSSION NATIONAL WEATHER SERVICE DETROIT/PONTIAC MI 1146 AM EST WED NOV 26 2014 .AVIATION... //DISCUSSION... EXTENSIVE HIGH MVFR/LOW VFR STRATUS WILL PERSIST. CEILINGS WILL RISE TO AROUND 4KFT AND SOME POTENTIAL FOR BREAKS IN THE CLOUD DECK WILL ARISE AS LIGHT EASTERLY WINDS WINDS BACK TO THE NORTHWEST OVERNIGHT AND SLIGHTLY DRIER AIR WORKS INTO THE LOW LEVELS. A BROKEN COVERAGE OF SNOW SHOWERS MAY ACCOMPANY A COLD FRONT AS IT WORKS ACROSS THE AREA 20Z-00Z THURSDAY AFTERNOON BUT CONFIDENCE DOES NOT YET WARRANT A MENTION IN THE OFFICIAL TAF. //DTW THRESHOLD THREATS... * HIGH CONFIDENCE IN CEILINGS BELOW 5000 FT THROUGH THIS AFTERNOON.

KDTW 261736Z 2618/2724 VRB03KT P6SM OVC035
FM270400 30005KT P6SM BKN040 OVC200=

KDET 261736Z 2618/2718 VRB03KT P6SM OVC025
FM270400 30005KT P6SM BKN040 OVC200=

Cleveland Center Weather Service Unit (CWSU)
Mission:
Our main responsibility is to provide up to the minute weather information to FAA Supervisors and the ZOB Traffic Management Unit (TMU). Some of the products issued by the CWSU are the Center Weather Advisories (CWA) and the Meteorological Impact Statement (MIS). The CWA is an aviation weather warning for thunderstorms, severe icing or turbulence, and low IFR ceilings and visibility. The MIS is a 2-12 hour forecast for weather conditions, which are expected to impact ARTCC operations.
 
Operations:
The Cleveland Center Weather Service Unit (ZOB CWSU) is located at the Federal Aviation Administration (FAA) Air Route Traffic Control Center (ARTCC) in Oberlin, OH. Four National Weather Service meteorologists staff the office. Our hours of operation are from 6:00 A.M. to 9:30 P.M. daily.

Web Site Owner:
NOAA National Weather Service
Cleveland ARTCC Attn:CWSU
326 East Lorain Street
Oberlin, OH 44074
Web Administrator:Webmaster
Page last modified: 23 Feb 2013
Disclaimer
Credits
Glossary
Privacy Policy
About Our Organization
Career Opportunities